Time;durP1;ratioP1;P1;durP2;ratioP2;P2;SDS_P1;SDS_P2;PMS_P1;PMS_P2;Temp;Humidity;BMP_temperature;BMP_pressure;BME280_temperature;BME280_humidity;BME280_pressure;Samples;Min_cycle;Max_cycle;Signal;HPM_P1;HPM_P2
2023/03/14 00:01:12;;;;;;;1.00;0.50;;;;;;;10.03;100.00;153934.47;5077769;28;20446;-92
2023/03/14 00:03:39;;;;;;;0.87;0.30;;;;;;;10.00;100.00;153926.69;5070704;28;20439;-92
2023/03/14 00:06:07;;;;;;;0.90;0.40;;;;;;;9.95;100.00;153913.75;5057059;28;20806;-94
2023/03/14 00:08:34;;;;;;;1.00;0.40;;;;;;;9.95;100.00;153913.75;5040948;28;20465;-93
2023/03/14 00:11:06;;;;;;;1.40;0.60;;;;;;;9.98;100.00;153921.53;5052070;28;20444;-94
2023/03/14 00:13:32;;;;;;;1.00;0.50;;;;;;;9.97;100.00;153920.22;5035566;28;20428;-94
2023/03/14 00:16:09;;;;;;;0.90;0.50;;;;;;;9.97;100.00;153918.91;5020278;28;20440;-93
2023/03/14 00:18:36;;;;;;;1.03;0.43;;;;;;;9.92;100.00;153906.00;5035698;28;20428;-93
2023/03/14 00:21:05;;;;;;;1.40;0.50;;;;;;;9.93;100.00;153908.59;5019280;28;21012;-94
2023/03/14 00:23:33;;;;;;;1.10;0.70;;;;;;;9.91;100.00;153903.38;5019019;28;20578;-93
2023/03/14 00:26:00;;;;;;;1.27;0.60;;;;;;;9.96;100.00;153916.31;5018781;28;20501;-78
2023/03/14 00:28:28;;;;;;;1.50;0.57;;;;;;;9.92;100.00;153906.00;5052279;28;20451;-78
2023/03/14 00:30:54;;;;;;;1.37;0.60;;;;;;;9.87;100.00;153893.06;5036082;28;20470;-78
2023/03/14 00:33:23;;;;;;;1.00;0.50;;;;;;;9.91;100.00;153903.38;5021800;28;20475;-78
2023/03/14 00:35:54;;;;;;;1.43;0.53;;;;;;;9.93;100.00;153908.59;5028774;28;20438;-78
2023/03/14 00:38:21;;;;;;;1.00;0.60;;;;;;;9.95;100.00;153913.75;5047100;28;20630;-78
2023/03/14 00:40:48;;;;;;;1.57;0.50;;;;;;;9.95;100.00;153913.75;5035798;28;20441;-78
2023/03/14 00:43:14;;;;;;;1.43;0.47;;;;;;;9.98;100.00;153921.53;5049210;28;20523;-78
2023/03/14 00:45:41;;;;;;;1.40;0.47;;;;;;;9.96;100.00;153916.31;5063263;28;20811;-78
2023/03/14 00:48:08;;;;;;;1.40;1.20;;;;;;;9.98;100.00;153921.53;5031166;28;20460;-78
2023/03/14 00:50:36;;;;;;;1.73;0.50;;;;;;;9.97;100.00;153920.22;5056702;28;20554;-78
2023/03/14 00:53:03;;;;;;;1.27;0.80;;;;;;;9.94;100.00;153912.47;5031448;28;20922;-78
2023/03/14 00:55:29;;;;;;;1.77;0.57;;;;;;;9.92;100.00;153907.28;5032742;28;20440;-78
2023/03/14 00:57:56;;;;;;;1.03;0.60;;;;;;;9.96;100.00;153917.63;5044220;28;21000;-78
2023/03/14 01:00:23;;;;;;;1.00;0.47;;;;;;;9.97;100.00;153918.91;5023003;28;20491;-78
2023/03/14 01:02:50;;;;;;;1.23;0.60;;;;;;;9.97;100.00;153920.22;5005507;28;20859;-78
2023/03/14 01:05:17;;;;;;;1.20;0.70;;;;;;;9.98;100.00;153921.53;5044443;28;20485;-78
2023/03/14 01:07:45;;;;;;;1.00;0.40;;;;;;;9.97;100.00;153918.91;5049690;28;20557;-78
2023/03/14 01:10:12;;;;;;;0.80;0.43;;;;;;;10.01;100.00;153930.56;5058695;28;20510;-78
2023/03/14 01:12:41;;;;;;;0.83;0.43;;;;;;;9.99;100.00;153924.09;5065127;28;20455;-78
2023/03/14 01:15:09;;;;;;;0.80;0.40;;;;;;;10.05;100.00;153939.63;5070378;28;20453;-78
2023/03/14 01:17:37;;;;;;;1.00;0.50;;;;;;;10.01;100.00;153930.56;5041568;28;20486;-78
2023/03/14 01:20:06;;;;;;;0.80;0.40;;;;;;;9.99;100.00;153924.09;5070886;28;20542;-78
2023/03/14 01:22:32;;;;;;;0.97;0.30;;;;;;;9.99;100.00;153925.38;5071275;28;20542;-78
2023/03/14 01:25:00;;;;;;;1.60;0.50;;;;;;;9.95;100.00;153913.75;5081499;28;20546;-78
2023/03/14 01:27:27;;;;;;;0.90;0.40;;;;;;;10.00;100.00;153926.69;5063744;28;20528;-78
2023/03/14 01:29:54;;;;;;;0.90;0.40;;;;;;;9.99;100.00;153925.38;5037707;28;20468;-78
2023/03/14 01:32:21;;;;;;;1.20;0.40;;;;;;;9.97;100.00;153918.91;5071341;28;20466;-78
2023/03/14 01:34:47;;;;;;;0.90;0.30;;;;;;;9.91;100.00;153904.69;5075162;28;20453;-78
2023/03/14 01:37:14;;;;;;;0.90;0.50;;;;;;;9.95;100.00;153913.75;5055310;28;20462;-78
2023/03/14 01:39:41;;;;;;;1.20;0.60;;;;;;;9.93;100.00;153908.59;5033644;28;20443;-78
2023/03/14 01:42:09;;;;;;;1.10;0.60;;;;;;;9.93;100.00;153909.84;5066674;28;20442;-78
2023/03/14 01:44:53;;;;;;;0.80;0.40;;;;;;;9.89;100.00;153898.22;5050446;28;20439;-78
2023/03/14 01:47:21;;;;;;;1.10;0.40;;;;;;;9.89;100.00;153898.22;5049052;28;20469;-78
2023/03/14 01:49:50;;;;;;;0.80;0.40;;;;;;;9.86;100.00;153890.44;5053114;28;20474;-78
2023/03/14 01:52:20;;;;;;;1.70;0.70;;;;;;;9.86;100.00;153890.44;5070059;28;20485;-78
2023/03/14 01:54:49;;;;;;;0.80;0.37;;;;;;;9.87;100.00;153893.06;5079460;28;20807;-78
2023/03/14 01:57:19;;;;;;;0.90;0.40;;;;;;;9.80;100.00;153877.50;5054781;28;20438;-78
2023/03/14 01:59:49;;;;;;;1.13;0.50;;;;;;;9.82;100.00;153882.69;5053680;28;20453;-78
2023/03/14 02:02:16;;;;;;;1.53;0.50;;;;;;;9.80;100.00;153877.50;5070869;28;20442;-78
2023/03/14 02:04:43;;;;;;;1.30;0.53;;;;;;;9.79;100.00;153873.66;5062602;28;20466;-78
2023/03/14 02:07:16;;;;;;;0.70;0.30;;;;;;;9.76;100.00;153867.19;5065154;28;20487;-78
2023/03/14 02:09:51;;;;;;;0.80;0.40;;;;;;;9.82;100.00;153880.13;5053732;28;20553;-78
2023/03/14 02:12:25;;;;;;;0.80;0.30;;;;;;;9.76;100.00;153867.19;5057977;28;20547;-78
2023/03/14 02:15:10;;;;;;;1.20;0.40;;;;;;;9.76;100.00;153867.19;5050169;28;20453;-78
2023/03/14 02:17:50;;;;;;;1.53;0.50;;;;;;;9.74;100.00;153860.72;5073205;28;20448;-78
2023/03/14 02:20:51;;;;;;;0.80;0.30;;;;;;;9.71;100.00;153854.25;5041955;28;21081;-78
2023/03/14 02:23:24;;;;;;;0.70;0.30;;;;;;;9.73;100.00;153858.09;5033408;28;20996;-78
2023/03/14 02:25:55;;;;;;;1.20;0.40;;;;;;;9.73;100.00;153858.09;5041959;28;20840;-78
2023/03/14 02:28:23;;;;;;;0.93;0.50;;;;;;;9.71;100.00;153854.25;5048862;28;21023;-78
2023/03/14 02:30:54;;;;;;;1.00;0.40;;;;;;;9.69;100.00;153847.72;5050022;28;20439;-77
2023/03/14 02:33:22;;;;;;;0.73;0.30;;;;;;;9.65;100.00;153838.72;5048451;28;20454;-77
2023/03/14 02:35:52;;;;;;;0.70;0.30;;;;;;;9.64;100.00;153834.81;5053447;28;20854;-78
2023/03/14 02:38:23;;;;;;;0.80;0.43;;;;;;;9.65;100.00;153838.72;5037766;28;20503;-78
2023/03/14 02:40:51;;;;;;;1.10;0.60;;;;;;;9.61;100.00;153828.34;5068969;28;20450;-78
2023/03/14 02:43:18;;;;;;;1.20;0.33;;;;;;;9.58;100.00;153819.31;5064669;28;20533;-79
2023/03/14 02:45:52;;;;;;;1.00;0.40;;;;;;;9.55;100.00;153812.84;5060868;28;20981;-78
2023/03/14 02:48:23;;;;;;;0.70;0.30;;;;;;;9.52;100.00;153803.78;5048264;28;20472;-78
2023/03/14 02:50:54;;;;;;;0.90;0.40;;;;;;;9.55;100.00;153812.84;5072060;28;20435;-78
2023/03/14 02:53:25;;;;;;;0.83;0.37;;;;;;;9.54;100.00;153810.25;5038288;28;20800;-78
2023/03/14 02:55:53;;;;;;;1.40;0.50;;;;;;;9.53;100.00;153807.63;5041839;28;20462;-78
2023/03/14 02:58:22;;;;;;;1.53;0.40;;;;;;;9.54;100.00;153808.94;5063561;28;20432;-78
2023/03/14 03:00:55;;;;;;;0.90;0.30;;;;;;;9.52;100.00;153803.78;5050916;28;20443;-78
2023/03/14 03:03:23;;;;;;;0.90;0.40;;;;;;;9.55;100.00;153812.84;5066031;28;20451;-78
2023/03/14 03:05:51;;;;;;;1.00;0.30;;;;;;;9.55;100.00;153812.84;5069711;28;20548;-78
2023/03/14 03:08:18;;;;;;;1.67;1.10;;;;;;;9.53;100.00;153806.38;5057139;28;20472;-78
2023/03/14 03:10:45;;;;;;;2.33;0.60;;;;;;;9.45;100.00;153786.94;5062758;28;20475;-78
2023/03/14 03:13:12;;;;;;;2.03;0.40;;;;;;;9.41;100.00;153775.31;5073318;28;20439;-78
2023/03/14 03:15:40;;;;;;;1.10;0.50;;;;;;;9.44;100.00;153784.38;5059192;28;20538;-78
2023/03/14 03:18:08;;;;;;;0.80;0.50;;;;;;;9.42;100.00;153779.22;5053403;28;20963;-78
2023/03/14 03:20:35;;;;;;;1.10;0.50;;;;;;;9.39;100.00;153770.13;5073663;28;20519;-78
2023/03/14 03:23:02;;;;;;;1.10;0.57;;;;;;;9.43;100.00;153780.47;5086588;28;20862;-78
2023/03/14 03:25:29;;;;;;;0.83;0.40;;;;;;;9.45;100.00;153785.69;5066901;28;20449;-78
2023/03/14 03:27:56;;;;;;;1.40;0.50;;;;;;;9.40;100.00;153774.00;5053722;28;20471;-78
2023/03/14 03:30:23;;;;;;;1.13;0.50;;;;;;;9.35;100.00;153761.06;5056699;28;20488;-78
2023/03/14 03:32:50;;;;;;;1.10;0.60;;;;;;;9.39;100.00;153771.44;5060098;28;20939;-78
2023/03/14 03:35:18;;;;;;;1.00;0.40;;;;;;;9.35;100.00;153759.75;5070606;28;20488;-78
2023/03/14 03:37:45;;;;;;;1.17;0.53;;;;;;;9.34;100.00;153758.50;5072466;28;20465;-78
2023/03/14 03:40:13;;;;;;;1.20;0.60;;;;;;;9.33;100.00;153754.59;5047127;28;21031;-77
2023/03/14 03:42:40;;;;;;;3.00;0.60;;;;;;;9.36;100.00;153763.66;5061741;28;20454;-77
2023/03/14 03:45:10;;;;;;;1.20;0.57;;;;;;;9.34;100.00;153757.22;5053848;28;20453;-78
2023/03/14 03:47:43;;;;;;;1.90;0.70;;;;;;;9.26;100.00;153737.81;5045259;28;20473;-78
2023/03/14 03:50:11;;;;;;;2.00;0.60;;;;;;;9.29;100.00;153745.59;5067528;28;20442;-78
2023/03/14 03:52:39;;;;;;;1.77;0.93;;;;;;;9.27;100.00;153740.38;5072854;28;20474;-78
2023/03/14 03:55:06;;;;;;;2.60;0.93;;;;;;;9.26;100.00;153737.81;5071803;28;20426;-78
2023/03/14 03:57:33;;;;;;;2.10;1.27;;;;;;;9.23;100.00;153730.03;5020082;28;20500;-78
2023/03/14 04:00:00;;;;;;;1.50;0.60;;;;;;;9.17;100.00;153715.81;5062453;28;20498;-78
2023/03/14 04:02:28;;;;;;;4.10;0.90;;;;;;;9.17;100.00;153714.50;5064657;28;20536;-78
2023/03/14 04:04:55;;;;;;;1.47;0.50;;;;;;;9.13;100.00;153704.19;5055794;28;20836;-78
2023/03/14 04:07:22;;;;;;;2.13;0.80;;;;;;;9.12;100.00;153702.88;5068119;28;20478;-78
2023/03/14 04:09:50;;;;;;;2.13;1.13;;;;;;;9.06;100.00;153687.34;5081110;28;21011;-78
2023/03/14 04:12:34;;;;;;;2.07;0.80;;;;;;;9.02;100.00;153677.03;5047866;28;20443;-78
2023/03/14 04:15:18;;;;;;;1.10;0.80;;;;;;;9.07;100.00;153688.66;5070081;28;20445;-78
2023/03/14 04:17:48;;;;;;;2.77;0.73;;;;;;;9.05;100.00;153684.75;5040528;28;20817;-78
2023/03/14 04:20:16;;;;;;;1.70;0.70;;;;;;;9.03;100.00;153679.59;5039636;28;20439;-78
2023/03/14 04:22:43;;;;;;;1.60;0.50;;;;;;;8.97;100.00;153662.81;5055793;28;20450;-78
2023/03/14 04:25:11;;;;;;;1.77;0.70;;;;;;;9.02;100.00;153675.72;5051353;28;20456;-78
2023/03/14 04:27:43;;;;;;;1.03;0.50;;;;;;;8.94;100.00;153655.03;5067201;28;20480;-78
2023/03/14 04:30:18;;;;;;;2.47;0.70;;;;;;;8.93;100.00;153652.44;5056532;28;20453;-78
2023/03/14 04:32:52;;;;;;;2.00;0.87;;;;;;;8.94;100.00;153655.03;5056420;28;20446;-77
2023/03/14 04:35:21;;;;;;;2.70;0.80;;;;;;;8.90;100.00;153644.66;5050224;28;20453;-78
2023/03/14 04:37:48;;;;;;;1.27;0.60;;;;;;;8.85;100.00;153631.75;5046583;28;20451;-78
2023/03/14 04:40:18;;;;;;;1.90;0.80;;;;;;;8.85;100.00;153631.75;5035432;28;20542;-78
2023/03/14 04:42:45;;;;;;;1.50;0.73;;;;;;;8.86;100.00;153635.66;5050146;28;20846;-78
2023/03/14 04:45:13;;;;;;;1.33;0.60;;;;;;;8.85;100.00;153633.03;5038103;28;20963;-78
2023/03/14 04:47:41;;;;;;;2.40;0.80;;;;;;;8.82;100.00;153623.97;5053797;28;20480;-77
2023/03/14 04:50:11;;;;;;;1.83;0.83;;;;;;;8.82;100.00;153623.97;5035511;28;21084;-78
2023/03/14 04:52:38;;;;;;;1.70;0.57;;;;;;;8.83;100.00;153626.59;5052418;28;20454;-78
2023/03/14 04:55:06;;;;;;;1.97;0.57;;;;;;;8.81;100.00;153621.41;5053745;28;20446;-78
2023/03/14 04:57:34;;;;;;;1.47;0.70;;;;;;;8.82;100.00;153623.97;5071227;28;20474;-77
2023/03/14 05:00:01;;;;;;;1.97;1.00;;;;;;;8.78;100.00;153614.97;5071065;28;20488;-78
2023/03/14 05:02:46;;;;;;;1.30;0.70;;;;;;;8.75;100.00;153605.91;5069569;28;20473;-78
2023/03/14 05:05:21;;;;;;;2.07;0.87;;;;;;;8.67;100.00;153585.22;5071102;28;20469;-78
2023/03/14 05:08:07;;;;;;;1.20;0.60;;;;;;;8.66;100.00;153582.66;5072247;28;20477;-78
2023/03/14 05:10:54;;;;;;;3.67;1.27;;;;;;;8.65;100.00;153581.34;5083394;28;20788;-78
2023/03/14 05:13:42;;;;;;;2.17;1.13;;;;;;;8.67;100.00;153585.22;5085166;28;20437;-78
2023/03/14 05:16:32;;;;;;;2.47;0.80;;;;;;;8.65;100.00;153580.03;5084719;28;20450;-77
2023/03/14 05:19:11;;;;;;;2.60;0.80;;;;;;;8.60;100.00;153567.13;5052339;28;20528;-78
2023/03/14 05:21:56;;;;;;;1.67;0.53;;;;;;;8.60;100.00;153567.13;5070382;28;20454;-77
2023/03/14 05:24:35;;;;;;;2.47;0.90;;;;;;;8.60;100.00;153567.13;5068874;28;20453;-77
2023/03/14 05:27:12;;;;;;;1.50;0.60;;;;;;;8.60;100.00;153567.13;5052467;28;20457;-77
2023/03/14 05:29:48;;;;;;;1.27;0.70;;;;;;;8.56;100.00;153559.38;5070056;28;20492;-78
2023/03/14 05:32:38;;;;;;;2.90;0.73;;;;;;;8.58;100.00;153564.53;5058629;28;20446;-78
2023/03/14 05:35:23;;;;;;;3.03;0.77;;;;;;;8.60;100.00;153567.13;5068328;28;20457;-78
2023/03/14 05:37:57;;;;;;;1.80;0.77;;;;;;;8.58;100.00;153564.53;5042119;28;20445;-77
2023/03/14 05:40:42;;;;;;;2.10;0.77;;;;;;;8.58;100.00;153564.53;5071089;28;21010;-77
2023/03/14 05:43:16;;;;;;;2.40;0.80;;;;;;;8.58;100.00;153564.53;5068150;28;20438;-78
2023/03/14 05:46:03;;;;;;;2.67;1.20;;;;;;;8.60;100.00;153568.44;5074856;28;20457;-78
2023/03/14 05:48:29;;;;;;;1.50;0.80;;;;;;;8.59;100.00;153565.81;5057466;28;20478;-77
2023/03/14 05:51:02;;;;;;;1.60;0.60;;;;;;;8.62;100.00;153572.28;5080194;28;20812;-77
2023/03/14 05:53:48;;;;;;;2.40;0.80;;;;;;;8.62;100.00;153573.59;5061658;28;20486;-78
2023/03/14 05:56:34;;;;;;;2.37;0.70;;;;;;;8.65;100.00;153580.03;5032621;28;20463;-77
2023/03/14 05:59:13;;;;;;;1.30;0.50;;;;;;;8.61;100.00;153569.69;5052573;28;20442;-77
2023/03/14 06:02:14;;;;;;;2.23;0.67;;;;;;;8.61;100.00;153570.97;5014904;28;20461;-77
2023/03/14 06:04:51;;;;;;;1.57;0.57;;;;;;;8.67;100.00;153585.22;5046175;28;20455;-78
2023/03/14 06:07:18;;;;;;;1.43;0.70;;;;;;;8.67;100.00;153586.50;5040678;28;20447;-77
2023/03/14 06:09:45;;;;;;;3.07;1.00;;;;;;;8.66;100.00;153582.66;5055105;28;20481;-77
2023/03/14 06:12:12;;;;;;;3.20;0.70;;;;;;;8.61;100.00;153569.69;5037707;28;20447;-77
2023/03/14 06:14:43;;;;;;;2.23;0.70;;;;;;;8.62;100.00;153572.28;5058096;28;20457;-77
2023/03/14 06:17:10;;;;;;;1.30;0.63;;;;;;;8.65;100.00;153580.03;5039617;28;20451;-77
2023/03/14 06:19:46;;;;;;;2.20;0.70;;;;;;;8.65;100.00;153580.03;5040879;28;20453;-78
2023/03/14 06:22:17;;;;;;;2.80;0.80;;;;;;;8.58;100.00;153564.53;5039875;28;20454;-77
2023/03/14 06:24:44;;;;;;;2.47;0.90;;;;;;;8.61;100.00;153569.69;5043444;28;21057;-77
2023/03/14 06:27:11;;;;;;;1.03;0.50;;;;;;;8.63;100.00;153574.88;5045215;28;20442;-77
2023/03/14 06:29:38;;;;;;;1.70;0.40;;;;;;;8.61;100.00;153570.97;5042028;28;20981;-77
2023/03/14 06:32:06;;;;;;;1.27;0.80;;;;;;;8.62;100.00;153572.28;5046769;28;20501;-77
2023/03/14 06:34:33;;;;;;;5.17;0.90;;;;;;;8.56;100.00;153559.38;5038423;28;20446;-77
2023/03/14 06:37:01;;;;;;;1.80;1.20;;;;;;;8.62;100.00;153572.28;5055308;28;20841;-77
2023/03/14 06:39:29;;;;;;;2.13;0.70;;;;;;;8.65;100.00;153580.03;5057539;28;20443;-77
2023/03/14 06:42:03;;;;;;;1.40;0.90;;;;;;;8.66;100.00;153583.91;5054249;28;20477;-77
2023/03/14 06:44:30;;;;;;;2.47;1.13;;;;;;;8.68;100.00;153589.13;5054525;28;20447;-77
2023/03/14 06:46:58;;;;;;;5.23;1.17;;;;;;;8.72;100.00;153598.13;5052940;28;20454;-77
2023/03/14 06:49:25;;;;;;;2.60;1.30;;;;;;;8.70;100.00;153594.28;5052431;28;20745;-77
2023/03/14 06:51:54;;;;;;;2.73;1.10;;;;;;;8.74;100.00;153604.59;5037845;28;20495;-77
2023/03/14 06:54:22;;;;;;;1.80;0.60;;;;;;;8.78;100.00;153614.97;5054411;28;20961;-77
2023/03/14 06:56:49;;;;;;;1.90;0.63;;;;;;;8.87;100.00;153636.94;5055487;28;20459;-77
2023/03/14 06:59:16;;;;;;;2.00;0.90;;;;;;;8.92;100.00;153649.88;5058226;28;20782;-77
2023/03/14 07:01:47;;;;;;;3.60;0.83;;;;;;;9.01;100.00;153673.13;5039210;28;20803;-77
2023/03/14 07:04:15;;;;;;;1.40;0.70;;;;;;;9.08;100.00;153691.25;5058236;28;20466;-77
2023/03/14 07:06:46;;;;;;;1.50;0.90;;;;;;;9.08;100.00;153691.25;5055777;28;20447;-77
2023/03/14 07:09:13;;;;;;;1.47;0.90;;;;;;;9.17;100.00;153715.81;5059473;28;20485;-77
2023/03/14 07:11:45;;;;;;;2.00;0.87;;;;;;;9.23;100.00;153730.03;5055580;28;21103;-77
2023/03/14 07:14:12;;;;;;;2.13;0.77;;;;;;;9.43;100.00;153781.75;5060899;28;20806;-77
2023/03/14 07:16:39;;;;;;;1.67;0.60;;;;;;;9.81;100.00;153878.81;5045622;28;20818;-77
2023/03/14 07:19:07;;;;;;;1.90;0.90;;;;;;;10.36;99.19;154021.22;5044802;28;20525;-78
2023/03/14 07:21:34;;;;;;;1.67;0.60;;;;;;;10.58;97.64;154076.91;5056502;28;20449;-77
2023/03/14 07:24:05;;;;;;;1.50;0.60;;;;;;;10.76;98.11;154123.53;5054434;28;20800;-77
2023/03/14 07:26:33;;;;;;;1.87;0.70;;;;;;;11.15;94.00;154221.94;5054926;28;20454;-77
2023/03/14 07:29:03;;;;;;;1.20;0.50;;;;;;;11.63;91.15;154346.31;5039310;28;20562;-77
2023/03/14 07:31:30;;;;;;;1.00;0.50;;;;;;;12.11;93.63;154469.50;5039008;28;20446;-77
2023/03/14 07:33:56;;;;;;;1.50;0.60;;;;;;;12.56;91.19;154584.91;5042665;28;20540;-77
2023/03/14 07:36:27;;;;;;;2.40;0.87;;;;;;;13.04;88.95;154709.44;5058921;28;21062;-77
2023/03/14 07:38:53;;;;;;;1.57;0.70;;;;;;;13.41;87.79;154805.50;5059306;28;20980;-77
2023/03/14 07:41:36;;;;;;;1.80;0.70;;;;;;;13.51;84.18;154828.81;5042881;28;20453;-77
2023/03/14 07:44:39;;;;;;;2.33;0.70;;;;;;;13.32;82.66;154782.13;5056839;28;20458;-77
2023/03/14 07:47:06;;;;;;;1.03;0.40;;;;;;;13.22;83.54;154756.19;5059400;28;20781;-77
2023/03/14 07:49:33;;;;;;;2.70;0.60;;;;;;;13.50;83.28;154826.25;5062353;28;20483;-77
2023/03/14 07:51:59;;;;;;;1.30;0.50;;;;;;;13.86;82.14;154921.00;5057093;28;20552;-77
2023/03/14 07:54:26;;;;;;;1.37;0.40;;;;;;;14.18;78.77;155002.78;5045043;28;20670;-77
2023/03/14 07:56:53;;;;;;;1.37;0.50;;;;;;;14.59;75.83;155108.00;5059700;28;20482;-78
2023/03/14 07:59:20;;;;;;;2.37;0.63;;;;;;;14.66;75.02;155124.91;5059175;28;20994;-77
2023/03/14 08:01:48;;;;;;;2.03;0.50;;;;;;;14.42;74.94;155065.19;5058245;28;20806;-77
2023/03/14 08:04:15;;;;;;;1.00;0.40;;;;;;;13.93;74.86;154937.84;5058912;28;20509;-77
2023/03/14 08:06:42;;;;;;;1.10;0.40;;;;;;;13.73;78.27;154885.94;5058970;28;20558;-77
2023/03/14 08:09:08;;;;;;;1.50;0.37;;;;;;;13.64;79.14;154862.56;5042445;28;20886;-77
2023/03/14 08:11:35;;;;;;;3.03;0.57;;;;;;;13.68;76.82;154872.97;5057824;28;20954;-77
2023/03/14 08:14:02;;;;;;;2.07;0.40;;;;;;;13.32;79.06;154780.81;5058216;28;20446;-77
2023/03/14 08:16:32;;;;;;;2.33;0.50;;;;;;;13.12;80.43;154730.22;5058431;28;20996;-77
2023/03/14 08:19:00;;;;;;;1.20;0.50;;;;;;;13.01;82.65;154700.31;5060953;28;20795;-77
2023/03/14 08:21:26;;;;;;;1.10;0.50;;;;;;;12.78;80.75;154641.97;5060492;28;20489;-77
2023/03/14 08:23:53;;;;;;;1.60;0.63;;;;;;;12.56;80.51;154584.91;5061479;28;20854;-77
2023/03/14 08:26:21;;;;;;;1.27;0.40;;;;;;;12.37;82.85;154535.59;5056770;28;20458;-77
2023/03/14 08:28:48;;;;;;;1.80;0.50;;;;;;;12.16;85.59;154483.78;5057055;28;20467;-77
2023/03/14 08:31:14;;;;;;;1.20;0.50;;;;;;;12.12;85.08;154472.13;5057035;28;20917;-77
2023/03/14 08:33:41;;;;;;;2.20;0.40;;;;;;;12.06;85.49;154456.53;5057465;28;20995;-77
2023/03/14 08:36:10;;;;;;;1.00;0.50;;;;;;;11.99;83.62;154438.41;5059738;28;20462;-77
2023/03/14 08:38:37;;;;;;;0.83;0.40;;;;;;;12.08;87.13;154461.72;5062259;28;20504;-77
2023/03/14 08:41:04;;;;;;;0.87;0.30;;;;;;;12.22;86.52;154498.03;5057210;28;20455;-78
2023/03/14 08:43:31;;;;;;;1.43;0.43;;;;;;;12.47;85.49;154561.59;5049257;28;20460;-77
2023/03/14 08:45:58;;;;;;;0.80;0.20;;;;;;;12.64;83.26;154606.94;5057351;28;20439;-78
2023/03/14 08:48:25;;;;;;;0.90;0.37;;;;;;;12.70;80.25;154621.22;5057312;28;20520;-77
2023/03/14 08:50:52;;;;;;;1.00;0.30;;;;;;;12.74;81.58;154631.56;5056584;28;20542;-77
2023/03/14 08:53:22;;;;;;;1.23;0.40;;;;;;;12.70;82.99;154621.22;5058374;28;20447;-77
2023/03/14 08:55:51;;;;;;;1.03;0.30;;;;;;;12.72;82.01;154627.72;5056983;28;20451;-77
2023/03/14 08:58:18;;;;;;;0.70;0.30;;;;;;;12.73;79.94;154630.28;5059744;28;20525;-77
2023/03/14 09:00:44;;;;;;;1.00;0.30;;;;;;;12.79;81.91;154644.53;5047659;28;20446;-77
2023/03/14 09:03:11;;;;;;;1.30;0.30;;;;;;;12.82;84.60;154652.31;5057967;28;20457;-78
2023/03/14 09:05:38;;;;;;;2.77;0.50;;;;;;;12.88;84.81;154667.91;5055357;28;20537;-77
2023/03/14 09:08:05;;;;;;;0.83;0.30;;;;;;;12.89;81.33;154669.22;5061138;28;20521;-77
2023/03/14 09:10:33;;;;;;;1.00;0.30;;;;;;;12.92;82.01;154678.25;5061019;28;20481;-78
2023/03/14 09:13:00;;;;;;;0.90;0.40;;;;;;;12.81;85.26;154649.75;5057152;28;20482;-77
2023/03/14 09:15:27;;;;;;;1.70;0.30;;;;;;;12.73;82.55;154629.00;5056521;28;20457;-77
2023/03/14 09:17:53;;;;;;;1.57;0.40;;;;;;;12.63;83.18;154604.34;5053048;28;20455;-78
2023/03/14 09:20:20;;;;;;;1.00;0.30;;;;;;;12.54;84.55;154579.72;5057362;28;20570;-77
2023/03/14 09:22:47;;;;;;;1.03;0.40;;;;;;;12.49;85.79;154568.06;5057598;28;20488;-77
2023/03/14 09:25:14;;;;;;;1.87;0.47;;;;;;;12.41;85.67;154547.31;5057422;28;20451;-77
2023/03/14 09:27:42;;;;;;;0.90;0.20;;;;;;;12.36;86.05;154534.34;5057032;28;20606;-77
2023/03/14 09:30:10;;;;;;;1.60;0.40;;;;;;;12.40;87.62;154544.69;5058062;28;20579;-77
2023/03/14 09:32:37;;;;;;;1.90;0.37;;;;;;;12.42;86.57;154549.88;5041446;28;20551;-77
2023/03/14 09:35:05;;;;;;;0.90;0.33;;;;;;;12.55;89.64;154583.59;5040614;28;20485;-77
2023/03/14 09:37:32;;;;;;;1.87;0.40;;;;;;;12.68;86.47;154616.03;5042360;28;20465;-77
2023/03/14 09:39:58;;;;;;;1.63;0.40;;;;;;;12.77;85.92;154639.38;5057975;28;20949;-78
2023/03/14 09:42:28;;;;;;;1.10;0.37;;;;;;;12.77;85.04;154640.66;5057250;28;20460;-77
2023/03/14 09:44:57;;;;;;;1.10;0.40;;;;;;;12.71;83.80;154625.09;5058911;28;20455;-77
2023/03/14 09:47:25;;;;;;;0.90;0.40;;;;;;;12.71;85.31;154623.78;5058554;28;20442;-77
2023/03/14 09:49:52;;;;;;;0.90;0.30;;;;;;;12.70;84.38;154621.22;5056285;28;20471;-77
2023/03/14 09:52:21;;;;;;;1.40;0.57;;;;;;;12.71;85.37;154623.78;5055568;28;20450;-77
2023/03/14 09:54:51;;;;;;;0.90;0.30;;;;;;;12.68;86.06;154616.03;5057626;28;20463;-78
2023/03/14 09:57:19;;;;;;;1.10;0.30;;;;;;;12.67;82.04;154614.75;5058332;28;20542;-77
2023/03/14 09:59:50;;;;;;;0.80;0.20;;;;;;;12.57;81.43;154588.81;5039963;28;20439;-78
2023/03/14 10:02:21;;;;;;;1.47;0.30;;;;;;;12.51;80.87;154571.94;5054235;28;20454;-77
2023/03/14 10:04:49;;;;;;;1.03;0.33;;;;;;;12.50;84.11;154569.31;5057797;28;20469;-77
2023/03/14 10:07:19;;;;;;;1.37;0.33;;;;;;;12.44;82.36;154555.09;5046881;28;20451;-77
2023/03/14 10:09:47;;;;;;;1.20;0.20;;;;;;;12.48;82.58;154564.16;5055136;28;20492;-77
2023/03/14 10:12:14;;;;;;;1.10;0.30;;;;;;;12.48;84.54;154564.16;5058708;28;20490;-77
2023/03/14 10:14:47;;;;;;;1.23;0.50;;;;;;;12.53;84.94;154577.09;5056997;28;20450;-77
2023/03/14 10:17:15;;;;;;;0.80;0.40;;;;;;;12.56;85.88;154584.91;5057644;28;20803;-77
2023/03/14 10:19:54;;;;;;;0.80;0.30;;;;;;;12.58;82.28;154590.06;5056885;28;20457;-77
2023/03/14 10:22:22;;;;;;;0.70;0.20;;;;;;;12.69;84.69;154618.63;5058029;28;20953;-77
2023/03/14 10:24:53;;;;;;;0.73;0.23;;;;;;;12.60;83.89;154595.28;5056565;28;21117;-77
2023/03/14 10:27:21;;;;;;;1.00;0.40;;;;;;;12.62;82.69;154601.78;5056916;28;20989;-77
2023/03/14 10:29:54;;;;;;;0.90;0.30;;;;;;;12.68;82.57;154616.03;5039927;28;20534;-77
2023/03/14 10:32:22;;;;;;;1.03;0.40;;;;;;;12.65;81.27;154609.56;5060807;28;20454;-77
2023/03/14 10:35:07;;;;;;;1.00;0.40;;;;;;;12.71;80.39;154623.78;5061551;28;20462;-78
2023/03/14 10:37:34;;;;;;;1.00;0.30;;;;;;;12.79;82.35;154644.53;5058337;28;20504;-77
2023/03/14 10:40:05;;;;;;;1.20;0.30;;;;;;;12.78;81.18;154641.97;5059720;28;20439;-77
2023/03/14 10:42:34;;;;;;;0.70;0.30;;;;;;;12.75;81.84;154635.50;5056080;28;20796;-77
2023/03/14 10:45:03;;;;;;;0.80;0.30;;;;;;;12.76;83.64;154636.81;5056336;28;20453;-77
2023/03/14 10:47:30;;;;;;;0.97;0.30;;;;;;;12.74;83.13;154631.56;5058600;28;20454;-77
2023/03/14 10:50:22;;;;;;;0.83;0.33;;;;;;;12.75;83.15;154634.19;5055563;28;20540;-77
2023/03/14 10:52:50;;;;;;;0.90;0.40;;;;;;;12.77;80.08;154639.38;5054638;28;20438;-77
2023/03/14 10:55:17;;;;;;;1.47;0.50;;;;;;;12.76;78.29;154636.81;5054279;28;20447;-78
2023/03/14 10:57:45;;;;;;;1.77;0.30;;;;;;;12.81;83.22;154649.75;5057531;28;20572;-77
2023/03/14 11:00:16;;;;;;;1.00;0.30;;;;;;;12.69;85.15;154618.63;5037721;28;20454;-78
2023/03/14 11:02:50;;;;;;;0.80;0.30;;;;;;;12.62;87.57;154600.47;5057783;28;20458;-78
2023/03/14 11:05:28;;;;;;;1.43;0.33;;;;;;;12.61;89.83;154597.84;5054649;28;20534;-78
2023/03/14 11:07:57;;;;;;;1.07;0.37;;;;;;;12.57;86.93;154587.50;5058312;28;20480;-78
2023/03/14 11:10:27;;;;;;;1.97;0.40;;;;;;;12.49;84.58;154568.06;5059251;28;20503;-77
2023/03/14 11:13:06;;;;;;;1.10;0.30;;;;;;;12.48;88.16;154565.44;5054971;28;20450;-78
2023/03/14 11:15:36;;;;;;;1.03;0.50;;;;;;;12.40;87.90;154544.69;5048829;28;20478;-78
2023/03/14 11:18:23;;;;;;;0.90;0.40;;;;;;;12.38;86.80;154538.22;5060216;28;20980;-77
2023/03/14 11:20:53;;;;;;;0.90;0.40;;;;;;;12.38;85.83;154538.22;5058129;28;20814;-77
2023/03/14 11:23:23;;;;;;;0.70;0.20;;;;;;;12.41;87.47;154546.00;5058696;28;20998;-77
2023/03/14 11:25:56;;;;;;;1.67;0.30;;;;;;;12.35;86.08;154531.75;5075239;28;20446;-77
2023/03/14 11:28:28;;;;;;;1.10;0.43;;;;;;;12.25;85.28;154504.50;5044304;28;20434;-78
2023/03/14 11:30:57;;;;;;;0.83;0.20;;;;;;;12.22;89.38;154498.03;5059733;28;20470;-77
2023/03/14 11:33:26;;;;;;;1.10;0.40;;;;;;;12.11;89.48;154470.81;5062076;28;20484;-77
2023/03/14 11:36:00;;;;;;;1.93;0.47;;;;;;;12.09;89.17;154465.63;5058997;28;20504;-77
2023/03/14 11:38:31;;;;;;;0.70;0.27;;;;;;;11.99;92.04;154439.66;5059577;28;20721;-78